createdAt,value
2023-04-15T00:02:33.275Z,98391.25
2023-04-15T00:06:38.376Z,98379.94
2023-04-15T00:10:44.278Z,98375.59
2023-04-15T00:14:47.258Z,98375.59
2023-04-15T00:18:50.335Z,98389.50
2023-04-15T00:22:53.633Z,98393.00
2023-04-15T00:26:58.222Z,98394.72
2023-04-15T00:31:01.264Z,98395.59
2023-04-15T00:35:04.478Z,98401.66
2023-04-15T00:39:07.713Z,98410.38
2023-04-15T00:43:12.811Z,98410.38
2023-04-15T00:47:17.581Z,98409.50
2023-04-15T00:51:20.629Z,98410.41
2023-04-15T00:55:23.729Z,98415.63
2023-04-15T00:59:28.848Z,98422.56
2023-04-15T01:03:32.393Z,98412.13
2023-04-15T01:07:35.863Z,98413.88
2023-04-15T01:11:39.050Z,98426.91
2023-04-15T01:15:46.227Z,98431.28
2023-04-15T01:19:50.117Z,98427.78
2023-04-15T01:23:54.555Z,98437.34
2023-04-15T01:28:00.331Z,98433.88
2023-04-15T01:32:04.554Z,98440.84
2023-04-15T01:36:10.064Z,98444.31
2023-04-15T01:40:13.907Z,98438.25
2023-04-15T01:44:18.443Z,98446.94
2023-04-15T01:48:21.510Z,98453.00
2023-04-15T01:52:24.604Z,98453.91
2023-04-15T01:56:27.793Z,98452.16
2023-04-15T02:00:32.732Z,98450.44
2023-04-15T02:04:36.151Z,98453.91
2023-04-15T02:08:39.272Z,98459.13
2023-04-15T02:12:44.163Z,98460.88
2023-04-15T02:16:49.330Z,98464.38
2023-04-15T02:20:53.529Z,98462.66
2023-04-15T02:24:56.525Z,98464.38
2023-04-15T02:29:00.047Z,98467.00
2023-04-15T02:33:05.237Z,98459.16
2023-04-15T02:37:08.528Z,98470.50
2023-04-15T02:41:12.631Z,98474.88
2023-04-15T02:45:15.776Z,98481.00
2023-04-15T02:49:21.983Z,98476.59
2023-04-15T02:53:26.111Z,98478.34
2023-04-15T02:57:29.826Z,98474.88
2023-04-15T03:01:37.104Z,98476.59
2023-04-15T03:05:41.598Z,98478.34
2023-04-15T03:09:44.730Z,98480.09
2023-04-15T03:13:48.519Z,98487.06
2023-04-15T03:18:11.833Z,98486.19
2023-04-15T03:22:18.168Z,98480.97
2023-04-15T03:26:29.496Z,98476.66
2023-04-15T03:30:36.593Z,98485.38
2023-04-15T03:34:39.857Z,98488.84
2023-04-15T03:38:44.345Z,98483.63
2023-04-15T03:42:47.608Z,98489.72
2023-04-15T03:46:50.969Z,98493.19
2023-04-15T03:50:54.501Z,98495.81
2023-04-15T03:54:58.963Z,98495.81
2023-04-15T03:59:02.359Z,98505.38
2023-04-15T04:03:05.875Z,98503.63
2023-04-15T04:07:09.089Z,98513.22
2023-04-15T04:11:13.613Z,98511.50
2023-04-15T04:15:17.077Z,98508.88
2023-04-15T04:19:20.392Z,98522.81
2023-04-15T04:23:23.462Z,98521.94
2023-04-15T04:27:27.898Z,98528.03
2023-04-15T04:31:31.076Z,98530.66
2023-04-15T04:35:37.667Z,98531.53
2023-04-15T04:39:40.783Z,98537.63
2023-04-15T04:43:45.184Z,98541.97
2023-04-15T04:47:48.679Z,98541.97
2023-04-15T04:51:52.334Z,98543.72
2023-04-15T04:55:55.521Z,98546.34
2023-04-15T05:00:00.011Z,98550.69
2023-04-15T05:04:05.323Z,98553.28
2023-04-15T05:08:08.642Z,98555.03
2023-04-15T05:12:15.030Z,98556.78
2023-04-15T05:16:20.103Z,98553.28
2023-04-15T05:20:23.224Z,98558.50
2023-04-15T05:24:26.281Z,98559.38
2023-04-15T05:28:29.275Z,98563.72
2023-04-15T05:32:33.699Z,98570.72
2023-04-15T05:36:36.756Z,98570.69
2023-04-15T05:40:39.825Z,98578.53
2023-04-15T05:44:42.845Z,98582.03
2023-04-15T05:48:47.476Z,98572.41
2023-04-15T05:52:50.481Z,98582.91
2023-04-15T05:56:53.956Z,98588.09
2023-04-15T06:00:57.427Z,98590.72
2023-04-15T06:05:02.186Z,98592.44
2023-04-15T06:09:05.583Z,98592.41
2023-04-15T06:13:09.075Z,98593.25
2023-04-15T06:17:14.932Z,98599.34
2023-04-15T06:21:19.335Z,98598.44
2023-04-15T06:25:22.624Z,98594.91
2023-04-15T06:29:26.118Z,98601.81
2023-04-15T06:33:29.659Z,98598.31
2023-04-15T06:37:34.031Z,98600.94
2023-04-15T06:41:37.456Z,98600.06
2023-04-15T06:45:40.662Z,98606.19
2023-04-15T06:49:44.945Z,98610.50
2023-04-15T06:53:49.357Z,98606.13
2023-04-15T06:57:52.627Z,98612.22
2023-04-15T07:01:55.743Z,98615.69
2023-04-15T07:05:58.943Z,98622.66
2023-04-15T07:10:03.436Z,98626.16
2023-04-15T07:14:06.798Z,98624.34
2023-04-15T07:18:09.858Z,98624.31
2023-04-15T07:22:12.902Z,98623.47
2023-04-15T07:26:17.315Z,98633.06
2023-04-15T07:30:20.507Z,98640.91
2023-04-15T07:34:23.646Z,98642.59
2023-04-15T07:38:27.342Z,98639.06
2023-04-15T07:42:31.956Z,98643.44
2023-04-15T07:46:35.037Z,98647.78
2023-04-15T07:50:38.157Z,98645.97
2023-04-15T07:54:41.192Z,98657.25
2023-04-15T07:58:45.888Z,98652.81
2023-04-15T08:02:49.935Z,98649.19
2023-04-15T08:06:53.586Z,98655.22
2023-04-15T08:10:56.680Z,98663.00
2023-04-15T08:15:02.161Z,98662.03
2023-04-15T08:19:05.685Z,98662.00
2023-04-15T08:23:08.869Z,98657.59
2023-04-15T08:27:11.943Z,98663.72
2023-04-15T08:31:18.093Z,98662.00
2023-04-15T08:35:21.245Z,98666.34
2023-04-15T08:39:24.284Z,98669.81
2023-04-15T08:43:30.686Z,98681.13
2023-04-15T08:47:37.549Z,98686.38
2023-04-15T08:51:41.576Z,98691.53
2023-04-15T08:55:46.677Z,98692.34
2023-04-15T08:59:50.969Z,98696.63
2023-04-15T09:03:55.729Z,98707.09
2023-04-15T09:07:59.133Z,98698.28
2023-04-15T09:12:03.042Z,98707.94
2023-04-15T09:16:08.379Z,98715.81
2023-04-15T09:20:15.515Z,98713.19
2023-04-15T09:24:18.576Z,98715.81
2023-04-15T09:28:26.871Z,98719.38
2023-04-15T09:32:29.921Z,98722.94
2023-04-15T09:36:52.887Z,98727.31
2023-04-15T09:40:56.373Z,98730.84
2023-04-15T09:45:10.096Z,98734.31
2023-04-15T09:49:13.978Z,98734.31
2023-04-15T09:53:20.248Z,98742.16
2023-04-15T09:57:23.667Z,98740.41
2023-04-15T10:01:27.155Z,98745.66
2023-04-15T10:05:31.661Z,98750.06
2023-04-15T10:09:37.392Z,98757.94
2023-04-15T10:13:42.721Z,98757.94
2023-04-15T10:17:46.873Z,98757.88
2023-04-15T10:21:51.492Z,98763.06
2023-04-15T10:25:56.211Z,98769.16
2023-04-15T10:30:01.670Z,98766.53
2023-04-15T10:34:06.707Z,98772.69
2023-04-15T10:38:35.225Z,98768.34
2023-04-15T10:42:39.696Z,98774.44
2023-04-15T10:46:45.161Z,98777.06
2023-04-15T10:50:58.095Z,98775.31
2023-04-15T10:55:05.604Z,98785.03
2023-04-15T10:59:10.653Z,98788.63
2023-04-15T11:03:14.129Z,98787.88
2023-04-15T11:07:17.319Z,98794.97
2023-04-15T11:11:20.864Z,98795.84
2023-04-15T11:15:30.630Z,98793.22
2023-04-15T11:19:40.135Z,98801.94
2023-04-15T11:23:47.043Z,98797.53
2023-04-15T11:27:50.641Z,98802.78
2023-04-15T11:31:55.391Z,98800.09
2023-04-15T11:35:58.399Z,98806.09
2023-04-15T11:40:04.528Z,98811.34
2023-04-15T11:44:17.967Z,98811.28
2023-04-15T11:48:23.990Z,98813.84
2023-04-15T11:52:27.175Z,98819.03
2023-04-15T11:56:30.362Z,98812.91
2023-04-15T12:00:34.022Z,98821.63
2023-04-15T12:04:39.110Z,98819.00
2023-04-15T12:09:01.511Z,98830.31
2023-04-15T12:13:09.208Z,98826.72
2023-04-15T12:17:13.293Z,98832.00
2023-04-15T12:21:20.411Z,98836.34
2023-04-15T12:25:35.531Z,98828.44
2023-04-15T12:29:41.055Z,98835.44
2023-04-15T12:33:44.450Z,98849.50
2023-04-15T12:37:49.104Z,98842.56
2023-04-15T12:41:54.488Z,98847.00
2023-04-15T12:45:57.639Z,98853.19
2023-04-15T12:50:01.025Z,98849.72
2023-04-15T12:54:05.864Z,98858.53
2023-04-15T12:58:09.410Z,98862.97
2023-04-15T13:02:12.785Z,98862.97
2023-04-15T13:06:16.166Z,98862.94
2023-04-15T13:10:21.300Z,98875.22
2023-04-15T13:14:24.504Z,98874.31
2023-04-15T13:18:27.684Z,98878.69
2023-04-15T13:22:30.724Z,98885.66
2023-04-15T13:26:35.166Z,98889.03
2023-04-15T13:30:38.807Z,98883.66
2023-04-15T13:34:41.773Z,98889.78
2023-04-15T13:38:44.862Z,98885.44
2023-04-15T13:42:49.554Z,98878.41
2023-04-15T13:46:53.272Z,98890.63
2023-04-15T13:50:56.323Z,98890.63
2023-04-15T13:55:08.211Z,98895.88
2023-04-15T13:59:23.844Z,98898.50
2023-04-15T14:03:27.034Z,98903.81
2023-04-15T14:07:31.622Z,98905.56
2023-04-15T14:11:35.449Z,98905.56
2023-04-15T14:15:40.100Z,98907.31
2023-04-15T14:19:43.546Z,98919.63
2023-04-15T14:23:46.760Z,98925.81
2023-04-15T14:27:50.028Z,98924.16
2023-04-15T14:32:04.473Z,98938.19
2023-04-15T14:36:14.981Z,98936.34
2023-04-15T14:40:18.070Z,98952.13
2023-04-15T14:44:21.160Z,98947.72
2023-04-15T14:48:25.795Z,98945.91
2023-04-15T14:52:28.942Z,98943.28
2023-04-15T14:56:32.044Z,98958.13
2023-04-15T15:00:35.418Z,98958.94
2023-04-15T15:04:40.755Z,98961.50
2023-04-15T15:08:44.271Z,98957.06
2023-04-15T15:12:47.516Z,98964.09
2023-04-15T15:16:51.040Z,98978.13
2023-04-15T15:20:55.567Z,98979.91
2023-04-15T15:24:59.287Z,98982.63
2023-04-15T15:29:02.559Z,98984.41
2023-04-15T15:33:05.895Z,98987.03
2023-04-15T15:37:10.535Z,98994.09
2023-04-15T15:41:13.707Z,99002.84
2023-04-15T15:45:17.248Z,99002.00
2023-04-15T15:49:20.458Z,99003.81
2023-04-15T15:53:25.928Z,99006.47
2023-04-15T15:57:29.102Z,99009.09
2023-04-15T16:01:32.142Z,99014.38
2023-04-15T16:05:35.496Z,99011.75
2023-04-15T16:09:41.136Z,99027.50
2023-04-15T16:13:44.333Z,99022.25
2023-04-15T16:17:47.716Z,99031.84
2023-04-15T16:21:50.952Z,99029.28
2023-04-15T16:25:55.343Z,99035.41
2023-04-15T16:29:58.413Z,99043.28
2023-04-15T16:34:01.518Z,99045.91
2023-04-15T16:38:04.792Z,99050.31
2023-04-15T16:42:09.190Z,99060.81
2023-04-15T16:46:12.201Z,99056.44
2023-04-15T16:50:15.792Z,99066.09
2023-04-15T16:54:18.878Z,99074.91
2023-04-15T16:58:23.322Z,99074.91
2023-04-15T17:02:26.649Z,99081.09
2023-04-15T17:06:30.775Z,99083.75
2023-04-15T17:10:33.901Z,99083.75
2023-04-15T17:14:38.971Z,99090.75
2023-04-15T17:18:42.101Z,99092.53
2023-04-15T17:22:45.376Z,99093.44
2023-04-15T17:26:48.751Z,99107.47
2023-04-15T17:30:53.170Z,99109.22
2023-04-15T17:34:56.144Z,99120.63
2023-04-15T17:38:59.119Z,99125.03
2023-04-15T17:43:02.036Z,99132.03
2023-04-15T17:47:06.573Z,99139.03
2023-04-15T17:51:09.473Z,99147.81
2023-04-15T17:55:12.564Z,99147.81
2023-04-15T17:59:15.510Z,99155.69
2023-04-15T18:03:19.953Z,99173.19
2023-04-15T18:07:23.029Z,99173.22
2023-04-15T18:11:26.668Z,99181.94
2023-04-15T18:15:29.640Z,99179.31
2023-04-15T18:19:34.103Z,99200.31
2023-04-15T18:23:37.080Z,99203.78
2023-04-15T18:27:40.223Z,99207.31
2023-04-15T18:31:43.253Z,99216.03
2023-04-15T18:35:49.869Z,99215.16
2023-04-15T18:39:54.098Z,99222.16
2023-04-15T18:43:57.134Z,99229.16
2023-04-15T18:48:00.130Z,99235.28
2023-04-15T18:52:05.056Z,99241.41
2023-04-15T18:56:08.332Z,99249.25
2023-04-15T19:00:12.757Z,99251.88
2023-04-15T19:04:15.789Z,99262.38
2023-04-15T19:08:20.176Z,99256.25
2023-04-15T19:12:23.272Z,99262.38
2023-04-15T19:16:26.235Z,99257.97
2023-04-15T19:20:29.309Z,99272.75
2023-04-15T19:24:34.025Z,99258.75
2023-04-15T19:28:36.986Z,99270.03
2023-04-15T19:32:39.959Z,99264.78
2023-04-15T19:36:43.363Z,99270.00
2023-04-15T19:40:47.646Z,99276.94
2023-04-15T19:44:50.551Z,99280.41
2023-04-15T19:48:53.834Z,99283.88
2023-04-15T19:52:56.778Z,99291.72
2023-04-15T19:57:01.578Z,99302.19
2023-04-15T20:01:04.610Z,99303.94
2023-04-15T20:05:09.974Z,99314.41
2023-04-15T20:09:12.974Z,99329.22
2023-04-15T20:13:17.488Z,99330.09
2023-04-15T20:17:20.459Z,99335.31
2023-04-15T20:21:23.528Z,99342.38
2023-04-15T20:25:26.725Z,99331.88
2023-04-15T20:29:31.165Z,99337.16
2023-04-15T20:33:34.080Z,99339.75
2023-04-15T20:37:38.337Z,99350.22
2023-04-15T20:41:41.329Z,99342.34
2023-04-15T20:45:45.663Z,99354.59
2023-04-15T20:49:48.613Z,99353.72
2023-04-15T20:53:51.534Z,99356.34
2023-04-15T20:57:54.561Z,99357.25
2023-04-15T21:01:58.923Z,99358.13
2023-04-15T21:06:01.930Z,99361.63
2023-04-15T21:10:05.271Z,99366.03
2023-04-15T21:14:09.214Z,99377.41
2023-04-15T21:18:13.626Z,99370.41
2023-04-15T21:22:16.630Z,99380.03
2023-04-15T21:26:19.574Z,99373.88
2023-04-15T21:30:23.733Z,99379.13
2023-04-15T21:34:28.075Z,99380.84
2023-04-15T21:38:30.977Z,99386.94
2023-04-15T21:42:33.880Z,99390.44
2023-04-15T21:46:36.911Z,99390.41
2023-04-15T21:50:41.298Z,99393.00
2023-04-15T21:54:44.195Z,99394.75
2023-04-15T21:58:47.111Z,99397.38
2023-04-15T22:02:50.380Z,99398.25
2023-04-15T22:06:55.795Z,99404.34
2023-04-15T22:10:58.950Z,99405.19
2023-04-15T22:15:02.586Z,99416.50
2023-04-15T22:19:05.845Z,99424.31
2023-04-15T22:23:10.736Z,99433.88
2023-04-15T22:27:13.822Z,99432.97
2023-04-15T22:31:16.865Z,99434.72
2023-04-15T22:35:19.987Z,99445.19
2023-04-15T22:39:24.395Z,99451.25
2023-04-15T22:43:27.664Z,99451.19
2023-04-15T22:47:30.956Z,99458.13
2023-04-15T22:51:34.058Z,99460.63
2023-04-15T22:55:38.504Z,99464.91
2023-04-15T22:59:41.713Z,99470.97
2023-04-15T23:03:57.086Z,99472.72
2023-04-15T23:08:06.232Z,99480.50
2023-04-15T23:12:10.649Z,99478.63
2023-04-15T23:16:13.913Z,99481.25
2023-04-15T23:20:17.388Z,99488.22
2023-04-15T23:24:20.672Z,99490.00
2023-04-15T23:28:25.198Z,99495.22
2023-04-15T23:32:28.510Z,99497.81
2023-04-15T23:36:31.862Z,99498.66
2023-04-15T23:40:35.125Z,99494.25
2023-04-15T23:44:39.607Z,99500.31
2023-04-15T23:48:42.875Z,99501.97
2023-04-15T23:52:46.064Z,99494.06
2023-04-15T23:56:49.277Z,99495.72
